createdAt,value
2023-03-16T00:00:04.753Z,506.26
2023-03-16T00:00:16.740Z,506.25
2023-03-16T00:00:27.964Z,506.23
2023-03-16T00:00:38.724Z,506.23
2023-03-16T00:00:49.738Z,506.25
2023-03-16T00:01:00.739Z,506.21
2023-03-16T00:01:11.774Z,506.21
2023-03-16T00:01:23.751Z,506.23
2023-03-16T00:01:34.840Z,506.20
2023-03-16T00:01:45.766Z,506.18
2023-03-16T00:01:56.872Z,506.16
2023-03-16T00:02:07.838Z,506.16
2023-03-16T00:02:18.815Z,506.13
2023-03-16T00:02:29.735Z,506.15
2023-03-16T00:02:40.740Z,506.11
2023-03-16T00:02:51.785Z,506.10
2023-03-16T00:03:02.810Z,506.08
2023-03-16T00:03:13.806Z,506.06
2023-03-16T00:03:24.885Z,506.02
2023-03-16T00:03:35.747Z,505.97
2023-03-16T00:03:47.756Z,505.93
2023-03-16T00:03:58.758Z,505.92
2023-03-16T00:04:10.794Z,505.89
2023-03-16T00:04:21.711Z,505.87
2023-03-16T00:04:32.781Z,505.84
2023-03-16T00:04:43.712Z,505.85
2023-03-16T00:04:54.799Z,505.85
2023-03-16T00:05:05.806Z,505.81
2023-03-16T00:05:16.717Z,505.81
2023-03-16T00:05:27.729Z,505.80
2023-03-16T00:05:38.795Z,505.76
2023-03-16T00:05:50.837Z,505.77
2023-03-16T00:06:02.760Z,505.80
2023-03-16T00:06:13.715Z,505.77
2023-03-16T00:06:25.815Z,505.76
2023-03-16T00:06:36.814Z,505.78
2023-03-16T00:06:48.796Z,505.79
2023-03-16T00:06:59.789Z,505.79
2023-03-16T00:07:11.790Z,505.77
2023-03-16T00:07:23.753Z,505.76
2023-03-16T00:07:34.776Z,505.72
2023-03-16T00:07:45.734Z,505.69
2023-03-16T00:07:56.778Z,505.66
2023-03-16T00:08:08.739Z,505.69
2023-03-16T00:08:19.792Z,505.65
2023-03-16T00:08:31.818Z,505.65
2023-03-16T00:08:42.744Z,505.64
2023-03-16T00:08:54.805Z,505.65
2023-03-16T00:09:05.770Z,505.62
2023-03-16T00:09:16.796Z,505.59
2023-03-16T00:09:27.727Z,505.54
2023-03-16T00:09:38.740Z,505.51
2023-03-16T00:09:49.804Z,505.48
2023-03-16T00:10:01.802Z,505.43
2023-03-16T00:10:13.799Z,505.43
2023-03-16T00:10:26.038Z,505.41
2023-03-16T00:10:37.802Z,505.41
2023-03-16T00:10:49.769Z,505.38
2023-03-16T00:11:01.766Z,505.36
2023-03-16T00:11:13.783Z,505.34
2023-03-16T00:11:24.716Z,505.31
2023-03-16T00:11:35.735Z,505.28
2023-03-16T00:11:46.734Z,505.26
2023-03-16T00:11:57.743Z,505.29
2023-03-16T00:12:08.759Z,505.30
2023-03-16T00:12:19.752Z,505.26
2023-03-16T00:12:30.754Z,505.26
2023-03-16T00:12:42.756Z,505.20
2023-03-16T00:12:53.745Z,505.17
2023-03-16T00:13:04.760Z,505.17
2023-03-16T00:13:15.760Z,505.13
2023-03-16T00:13:26.765Z,505.16
2023-03-16T00:13:38.743Z,505.15
2023-03-16T00:13:49.767Z,505.14
2023-03-16T00:14:00.729Z,505.13
2023-03-16T00:14:11.730Z,505.13
2023-03-16T00:14:22.733Z,505.10
2023-03-16T00:14:33.749Z,505.12
2023-03-16T00:14:44.757Z,505.13
2023-03-16T00:14:55.767Z,505.12
2023-03-16T00:15:06.772Z,505.14
2023-03-16T00:15:18.743Z,505.16
2023-03-16T00:15:30.740Z,505.13
2023-03-16T00:15:41.742Z,505.12
2023-03-16T00:15:52.737Z,505.12
2023-03-16T00:16:03.788Z,505.15
2023-03-16T00:16:14.839Z,505.18
2023-03-16T00:16:26.854Z,505.15
2023-03-16T00:16:38.770Z,505.16
2023-03-16T00:16:50.758Z,505.18
2023-03-16T00:17:02.731Z,505.20
2023-03-16T00:17:13.741Z,505.18
2023-03-16T00:17:24.744Z,505.11
2023-03-16T00:17:36.744Z,505.15
2023-03-16T00:17:47.747Z,505.21
2023-03-16T00:17:58.767Z,505.21
2023-03-16T00:18:09.752Z,505.22
2023-03-16T00:18:21.772Z,505.23
2023-03-16T00:18:33.742Z,505.25
2023-03-16T00:18:44.751Z,505.26
2023-03-16T00:18:56.759Z,505.28
2023-03-16T00:19:07.756Z,505.34
2023-03-16T00:19:18.768Z,505.36
2023-03-16T00:19:30.746Z,505.34
2023-03-16T00:19:41.751Z,505.37
2023-03-16T00:19:52.766Z,505.38
2023-03-16T00:20:03.773Z,505.41
2023-03-16T00:20:14.775Z,505.39
2023-03-16T00:20:26.989Z,505.41
2023-03-16T00:20:37.782Z,505.37
2023-03-16T00:20:49.782Z,505.37
2023-03-16T00:21:00.710Z,505.36
2023-03-16T00:21:11.740Z,505.37
2023-03-16T00:21:22.763Z,505.35
2023-03-16T00:21:34.743Z,505.34
2023-03-16T00:21:46.746Z,505.36
2023-03-16T00:21:57.752Z,505.36
2023-03-16T00:22:08.740Z,505.36
2023-03-16T00:22:19.748Z,505.35
2023-03-16T00:22:30.763Z,505.34
2023-03-16T00:22:42.751Z,505.33
2023-03-16T00:22:53.751Z,505.32
2023-03-16T00:23:04.745Z,505.35
2023-03-16T00:23:15.738Z,505.34
2023-03-16T00:23:26.729Z,505.37
2023-03-16T00:23:37.762Z,505.40
2023-03-16T00:23:49.765Z,505.45
2023-03-16T00:24:00.723Z,505.46
2023-03-16T00:24:11.739Z,505.47
2023-03-16T00:24:22.755Z,505.49
2023-03-16T00:24:33.758Z,505.52
2023-03-16T00:24:44.764Z,505.54
2023-03-16T00:24:55.778Z,505.55
2023-03-16T00:25:07.752Z,505.58
2023-03-16T00:25:18.763Z,505.60
2023-03-16T00:25:30.768Z,505.61
2023-03-16T00:25:41.767Z,505.62
2023-03-16T00:25:52.767Z,505.66
2023-03-16T00:26:03.774Z,505.67
2023-03-16T00:26:14.775Z,505.72
2023-03-16T00:26:26.737Z,505.72
2023-03-16T00:26:37.731Z,505.70
2023-03-16T00:26:48.742Z,505.74
2023-03-16T00:26:59.765Z,505.79
2023-03-16T00:27:11.735Z,505.82
2023-03-16T00:27:23.756Z,505.80
2023-03-16T00:27:35.740Z,505.81
2023-03-16T00:27:46.754Z,505.80
2023-03-16T00:27:57.762Z,505.82
2023-03-16T00:28:08.780Z,505.82
2023-03-16T00:28:20.746Z,505.86
2023-03-16T00:28:31.758Z,505.87
2023-03-16T00:28:43.735Z,505.87
2023-03-16T00:28:55.737Z,505.88
2023-03-16T00:29:06.777Z,505.88
2023-03-16T00:29:18.748Z,505.88
2023-03-16T00:29:29.762Z,505.87
2023-03-16T00:29:40.759Z,505.87
2023-03-16T00:29:51.754Z,505.90
2023-03-16T00:30:03.762Z,505.90
2023-03-16T00:30:15.740Z,505.93
2023-03-16T00:30:26.941Z,505.93
2023-03-16T00:30:37.725Z,505.92
2023-03-16T00:30:48.760Z,505.96
2023-03-16T00:31:00.744Z,505.97
2023-03-16T00:31:11.749Z,506.00
2023-03-16T00:31:22.814Z,506.00
2023-03-16T00:31:33.910Z,506.03
2023-03-16T00:31:44.850Z,506.03
2023-03-16T00:31:55.806Z,506.07
2023-03-16T00:32:06.810Z,506.10
2023-03-16T00:32:17.761Z,506.12
2023-03-16T00:32:29.791Z,506.14
2023-03-16T00:32:40.754Z,506.21
2023-03-16T00:32:52.836Z,506.25
2023-03-16T00:33:03.863Z,506.28
2023-03-16T00:33:15.738Z,506.34
2023-03-16T00:33:27.736Z,506.36
2023-03-16T00:33:38.759Z,506.38
2023-03-16T00:33:49.765Z,506.41
2023-03-16T00:34:00.737Z,506.41
2023-03-16T00:34:11.745Z,506.43
2023-03-16T00:34:22.739Z,506.46
2023-03-16T00:34:33.743Z,506.50
2023-03-16T00:34:44.729Z,506.51
2023-03-16T00:34:55.745Z,506.52
2023-03-16T00:35:09.253Z,506.55
2023-03-16T00:35:18.754Z,506.57
2023-03-16T00:35:29.781Z,506.60
2023-03-16T00:35:41.805Z,506.63
2023-03-16T00:35:52.828Z,506.65
2023-03-16T00:36:03.813Z,506.66
2023-03-16T00:36:15.767Z,506.70
2023-03-16T00:36:26.757Z,506.70
2023-03-16T00:36:37.747Z,506.71
2023-03-16T00:36:48.752Z,506.76
2023-03-16T00:36:59.764Z,506.77
2023-03-16T00:37:11.752Z,506.75
2023-03-16T00:37:22.790Z,506.76
2023-03-16T00:37:34.821Z,506.74
2023-03-16T00:37:46.807Z,506.78
2023-03-16T00:37:57.742Z,506.77
2023-03-16T00:38:08.748Z,506.78
2023-03-16T00:38:19.762Z,506.77
2023-03-16T00:38:30.768Z,506.77
2023-03-16T00:38:42.731Z,506.81
2023-03-16T00:38:53.730Z,506.76
2023-03-16T00:39:04.735Z,506.76
2023-03-16T00:39:16.746Z,506.75
2023-03-16T00:39:27.747Z,506.74
2023-03-16T00:39:39.742Z,506.72
2023-03-16T00:39:50.741Z,506.69
2023-03-16T00:40:01.749Z,506.66
2023-03-16T00:40:13.747Z,506.65
2023-03-16T00:40:24.856Z,506.63
2023-03-16T00:40:35.735Z,506.59
2023-03-16T00:40:46.733Z,506.56
2023-03-16T00:40:57.736Z,506.57
2023-03-16T00:41:09.764Z,506.52
2023-03-16T00:41:20.765Z,506.52
2023-03-16T00:41:31.756Z,506.50
2023-03-16T00:41:43.756Z,506.48
2023-03-16T00:41:54.761Z,506.47
2023-03-16T00:42:05.752Z,506.45
2023-03-16T00:42:16.720Z,506.43
2023-03-16T00:42:27.791Z,506.45
2023-03-16T00:42:39.776Z,506.44
2023-03-16T00:42:51.740Z,506.45
2023-03-16T00:43:02.732Z,506.44
2023-03-16T00:43:13.727Z,506.46
2023-03-16T00:43:24.727Z,506.46
2023-03-16T00:43:35.728Z,506.45
2023-03-16T00:43:46.729Z,506.44
2023-03-16T00:43:57.753Z,506.42
2023-03-16T00:44:08.756Z,506.44
2023-03-16T00:44:20.727Z,506.44
2023-03-16T00:44:31.797Z,506.44
2023-03-16T00:44:43.786Z,506.47
2023-03-16T00:44:55.758Z,506.47
2023-03-16T00:45:06.762Z,506.49
2023-03-16T00:45:18.748Z,506.54
2023-03-16T00:45:30.762Z,506.53
2023-03-16T00:45:42.749Z,506.53
2023-03-16T00:45:53.781Z,506.55
2023-03-16T00:46:04.774Z,506.55
2023-03-16T00:46:15.833Z,506.59
2023-03-16T00:46:26.798Z,506.63
2023-03-16T00:46:38.764Z,506.64
2023-03-16T00:46:50.765Z,506.67
2023-03-16T00:47:02.730Z,506.68
2023-03-16T00:47:13.728Z,506.71
2023-03-16T00:47:24.755Z,506.73
2023-03-16T00:47:35.752Z,506.75
2023-03-16T00:47:46.754Z,506.74
2023-03-16T00:47:58.741Z,506.77
2023-03-16T00:48:09.744Z,506.78
2023-03-16T00:48:20.747Z,506.77
2023-03-16T00:48:32.727Z,506.75
2023-03-16T00:48:43.758Z,506.77
2023-03-16T00:48:54.757Z,506.76
2023-03-16T00:49:06.739Z,506.74
2023-03-16T00:49:17.875Z,506.74
2023-03-16T00:49:29.753Z,506.70
2023-03-16T00:49:40.755Z,506.67
2023-03-16T00:49:51.768Z,506.65
2023-03-16T00:50:02.774Z,506.61
2023-03-16T00:50:13.767Z,506.58
2023-03-16T00:50:26.143Z,506.53
2023-03-16T00:50:37.779Z,506.51
2023-03-16T00:50:49.739Z,506.51
2023-03-16T00:51:01.740Z,506.48
2023-03-16T00:51:12.749Z,506.48
2023-03-16T00:51:23.752Z,506.47
2023-03-16T00:51:34.771Z,506.41
2023-03-16T00:51:46.735Z,506.41
2023-03-16T00:51:57.737Z,506.41
2023-03-16T00:52:08.736Z,506.39
2023-03-16T00:52:19.736Z,506.40
2023-03-16T00:52:31.730Z,506.40
2023-03-16T00:52:42.755Z,506.42
2023-03-16T00:52:54.732Z,506.41
2023-03-16T00:53:05.765Z,506.41
2023-03-16T00:53:17.732Z,506.43
2023-03-16T00:53:28.753Z,506.42
2023-03-16T00:53:40.728Z,506.42
2023-03-16T00:53:51.802Z,506.41
2023-03-16T00:54:03.795Z,506.43
2023-03-16T00:54:15.769Z,506.44
2023-03-16T00:54:27.750Z,506.42
2023-03-16T00:54:38.748Z,506.46
2023-03-16T00:54:49.756Z,506.44
2023-03-16T00:55:00.711Z,506.49
2023-03-16T00:55:11.729Z,506.51
2023-03-16T00:55:22.735Z,506.52
2023-03-16T00:55:33.741Z,506.53
2023-03-16T00:55:44.755Z,506.52
2023-03-16T00:55:56.748Z,506.53
2023-03-16T00:56:08.755Z,506.55
2023-03-16T00:56:20.743Z,506.53
2023-03-16T00:56:31.750Z,506.55
2023-03-16T00:56:43.737Z,506.56
2023-03-16T00:56:54.736Z,506.58
2023-03-16T00:57:05.745Z,506.57
2023-03-16T00:57:16.750Z,506.56
2023-03-16T00:57:27.869Z,506.58
2023-03-16T00:57:39.755Z,506.59
2023-03-16T00:57:50.759Z,506.56
2023-03-16T00:58:01.756Z,506.60
2023-03-16T00:58:12.755Z,506.57
2023-03-16T00:58:23.759Z,506.58
2023-03-16T00:58:35.871Z,506.58
2023-03-16T00:58:46.738Z,506.61
2023-03-16T00:58:57.987Z,506.61
2023-03-16T00:59:08.744Z,506.57
2023-03-16T00:59:19.758Z,506.57
2023-03-16T00:59:30.771Z,506.61
2023-03-16T00:59:42.741Z,506.64
2023-03-16T00:59:53.737Z,506.66
2023-03-16T01:00:04.727Z,506.66
2023-03-16T01:00:15.731Z,506.66
2023-03-16T01:00:27.014Z,506.66
2023-03-16T01:00:37.732Z,506.65
2023-03-16T01:00:48.891Z,506.69
2023-03-16T01:00:59.788Z,506.71
2023-03-16T01:01:10.807Z,506.71
2023-03-16T01:01:21.797Z,506.74
2023-03-16T01:01:32.791Z,506.76
2023-03-16T01:01:44.784Z,506.78
2023-03-16T01:01:56.739Z,506.77
2023-03-16T01:02:07.734Z,506.77
2023-03-16T01:02:18.738Z,506.78
2023-03-16T01:02:29.738Z,506.76
2023-03-16T01:02:41.739Z,506.79
2023-03-16T01:02:52.753Z,506.81
2023-03-16T01:03:04.788Z,506.83
2023-03-16T01:03:16.815Z,506.84
2023-03-16T01:03:27.744Z,506.84
2023-03-16T01:03:39.742Z,506.82
2023-03-16T01:03:51.735Z,506.82
2023-03-16T01:04:02.738Z,506.80
2023-03-16T01:04:13.743Z,506.78
2023-03-16T01:04:24.766Z,506.74
2023-03-16T01:04:36.768Z,506.75
2023-03-16T01:04:48.747Z,506.72
2023-03-16T01:04:59.752Z,506.72
2023-03-16T01:05:10.755Z,506.69
2023-03-16T01:05:21.748Z,506.69
2023-03-16T01:05:33.728Z,506.70
2023-03-16T01:05:44.733Z,506.67
2023-03-16T01:05:55.733Z,506.69
2023-03-16T01:06:06.737Z,506.67
2023-03-16T01:06:17.743Z,506.68
2023-03-16T01:06:28.758Z,506.68
2023-03-16T01:06:40.725Z,506.67
2023-03-16T01:06:51.755Z,506.64
2023-03-16T01:07:02.768Z,506.65
2023-03-16T01:07:13.793Z,506.66
2023-03-16T01:07:25.776Z,506.67
2023-03-16T01:07:37.740Z,506.68
2023-03-16T01:07:49.740Z,506.68
2023-03-16T01:08:00.749Z,506.67
2023-03-16T01:08:11.752Z,506.67
2023-03-16T01:08:23.735Z,506.67
2023-03-16T01:08:34.749Z,506.69
2023-03-16T01:08:45.765Z,506.69
2023-03-16T01:08:57.730Z,506.71
2023-03-16T01:09:08.725Z,506.71
2023-03-16T01:09:19.773Z,506.73
2023-03-16T01:09:31.732Z,506.73
2023-03-16T01:09:42.814Z,506.76
2023-03-16T01:09:54.715Z,506.74
2023-03-16T01:10:05.730Z,506.75
2023-03-16T01:10:16.788Z,506.76
2023-03-16T01:10:29.112Z,506.78
2023-03-16T01:10:40.773Z,506.76
2023-03-16T01:10:52.738Z,506.79
2023-03-16T01:11:03.752Z,506.79
2023-03-16T01:11:14.754Z,506.80
2023-03-16T01:11:25.760Z,506.79
2023-03-16T01:11:36.752Z,506.76
2023-03-16T01:11:48.743Z,506.76
2023-03-16T01:11:59.748Z,506.76
2023-03-16T01:12:10.791Z,506.77
2023-03-16T01:12:21.735Z,506.79
2023-03-16T01:12:32.727Z,506.77
2023-03-16T01:12:43.731Z,506.79
2023-03-16T01:12:55.743Z,506.78
2023-03-16T01:13:07.730Z,506.78
2023-03-16T01:13:18.730Z,506.79
2023-03-16T01:13:29.820Z,506.79
2023-03-16T01:13:40.725Z,506.81
2023-03-16T01:13:51.748Z,506.81
2023-03-16T01:14:02.750Z,506.81
2023-03-16T01:14:13.751Z,506.83
2023-03-16T01:14:25.742Z,506.82
2023-03-16T01:14:36.752Z,506.83
2023-03-16T01:14:48.735Z,506.84
2023-03-16T01:14:59.752Z,506.85
2023-03-16T01:15:11.759Z,506.87
2023-03-16T01:15:23.736Z,506.87
2023-03-16T01:15:34.746Z,506.90
2023-03-16T01:15:45.766Z,506.90
2023-03-16T01:15:57.749Z,506.94
2023-03-16T01:16:08.752Z,506.93
2023-03-16T01:16:20.791Z,506.94
2023-03-16T01:16:31.789Z,506.95
2023-03-16T01:16:42.787Z,506.96
2023-03-16T01:16:53.775Z,507.01
2023-03-16T01:17:04.811Z,507.06
2023-03-16T01:17:16.706Z,507.08
2023-03-16T01:17:27.707Z,507.09
2023-03-16T01:17:38.717Z,507.12
2023-03-16T01:17:49.708Z,507.16
2023-03-16T01:18:00.753Z,507.18
2023-03-16T01:18:12.748Z,507.24
2023-03-16T01:18:23.754Z,507.28
2023-03-16T01:18:34.754Z,507.30
2023-03-16T01:18:45.767Z,507.34
2023-03-16T01:18:56.764Z,507.38
2023-03-16T01:19:08.752Z,507.42
2023-03-16T01:19:19.749Z,507.44
2023-03-16T01:19:31.740Z,507.49
2023-03-16T01:19:42.760Z,507.51
2023-03-16T01:19:54.735Z,507.57
2023-03-16T01:20:05.737Z,507.59
2023-03-16T01:20:16.745Z,507.57
2023-03-16T01:20:27.980Z,507.63
2023-03-16T01:20:38.714Z,507.63
2023-03-16T01:20:49.713Z,507.64
2023-03-16T01:21:00.748Z,507.67
2023-03-16T01:21:12.734Z,507.67
2023-03-16T01:21:23.724Z,507.69
2023-03-16T01:21:34.737Z,507.70
2023-03-16T01:21:45.744Z,507.68
2023-03-16T01:21:56.756Z,507.69
2023-03-16T01:22:07.762Z,507.71
2023-03-16T01:22:18.783Z,507.72
2023-03-16T01:22:30.799Z,507.71
2023-03-16T01:22:42.730Z,507.75
2023-03-16T01:22:53.732Z,507.72
2023-03-16T01:23:04.762Z,507.73
2023-03-16T01:23:15.768Z,507.73
2023-03-16T01:23:27.748Z,507.73
2023-03-16T01:23:39.734Z,507.75
2023-03-16T01:23:50.770Z,507.76
2023-03-16T01:24:02.758Z,507.80
2023-03-16T01:24:14.747Z,507.83
2023-03-16T01:24:25.759Z,507.85
2023-03-16T01:24:36.756Z,507.88
2023-03-16T01:24:47.754Z,507.90
2023-03-16T01:24:58.743Z,507.93
2023-03-16T01:25:09.768Z,507.96
2023-03-16T01:25:21.736Z,507.97
2023-03-16T01:25:32.751Z,508.03
2023-03-16T01:25:43.753Z,508.07
2023-03-16T01:25:55.733Z,508.08
2023-03-16T01:26:06.743Z,508.12
2023-03-16T01:26:18.848Z,508.16
2023-03-16T01:26:30.770Z,508.19
2023-03-16T01:26:42.753Z,508.21
2023-03-16T01:26:54.736Z,508.24
2023-03-16T01:27:05.737Z,508.28
2023-03-16T01:27:16.756Z,508.29
2023-03-16T01:27:28.742Z,508.32
2023-03-16T01:27:39.769Z,508.32
2023-03-16T01:27:51.736Z,508.34
2023-03-16T01:28:03.755Z,508.35
2023-03-16T01:28:14.769Z,508.33
2023-03-16T01:28:26.757Z,508.35
2023-03-16T01:28:37.757Z,508.37
2023-03-16T01:28:48.761Z,508.37
2023-03-16T01:29:00.759Z,508.40
2023-03-16T01:29:11.756Z,508.39
2023-03-16T01:29:22.758Z,508.38
2023-03-16T01:29:33.740Z,508.41
2023-03-16T01:29:44.768Z,508.42
2023-03-16T01:29:55.757Z,508.46
2023-03-16T01:30:06.755Z,508.46
2023-03-16T01:30:17.774Z,508.46
2023-03-16T01:30:29.883Z,508.50
2023-03-16T01:30:41.766Z,508.51
2023-03-16T01:30:53.801Z,508.53
2023-03-16T01:31:04.813Z,508.54
2023-03-16T01:31:15.881Z,508.58
2023-03-16T01:31:27.766Z,508.61
2023-03-16T01:31:39.791Z,508.64
2023-03-16T01:31:51.764Z,508.67
2023-03-16T01:32:03.737Z,508.71
2023-03-16T01:32:14.762Z,508.75
2023-03-16T01:32:26.750Z,508.78
2023-03-16T01:32:38.763Z,508.81
2023-03-16T01:32:50.769Z,508.83
2023-03-16T01:33:02.793Z,508.86
2023-03-16T01:33:13.716Z,508.89
2023-03-16T01:33:25.733Z,508.91
2023-03-16T01:33:37.757Z,508.95
2023-03-16T01:33:49.731Z,508.96
2023-03-16T01:34:01.744Z,508.98
2023-03-16T01:34:12.765Z,508.99
2023-03-16T01:34:24.772Z,509.01
2023-03-16T01:34:36.794Z,509.03
2023-03-16T01:34:48.797Z,509.02
2023-03-16T01:35:00.793Z,509.04
2023-03-16T01:35:12.721Z,509.04
2023-03-16T01:35:23.779Z,509.06
2023-03-16T01:35:34.739Z,509.09
2023-03-16T01:35:45.739Z,509.09
2023-03-16T01:35:57.777Z,509.12
2023-03-16T01:36:08.718Z,509.11
2023-03-16T01:36:19.741Z,509.15
2023-03-16T01:36:30.791Z,509.15
2023-03-16T01:36:41.737Z,509.17
2023-03-16T01:36:53.756Z,509.15
2023-03-16T01:37:05.731Z,509.15
2023-03-16T01:37:16.769Z,509.16
2023-03-16T01:37:28.761Z,509.16
2023-03-16T01:37:39.753Z,509.16
2023-03-16T01:37:50.721Z,509.18
2023-03-16T01:38:01.785Z,509.16
2023-03-16T01:38:13.785Z,509.15
2023-03-16T01:38:25.758Z,509.16
2023-03-16T01:38:36.731Z,509.15
2023-03-16T01:38:47.758Z,509.15
2023-03-16T01:38:58.763Z,509.17
2023-03-16T01:39:10.739Z,509.16
2023-03-16T01:39:21.749Z,509.18
2023-03-16T01:39:33.749Z,509.17
2023-03-16T01:39:44.748Z,509.17
2023-03-16T01:39:56.748Z,509.19
2023-03-16T01:40:08.755Z,509.19
2023-03-16T01:40:20.738Z,509.21
2023-03-16T01:40:31.758Z,509.23
2023-03-16T01:40:43.761Z,509.25
2023-03-16T01:40:54.762Z,509.25
2023-03-16T01:41:06.741Z,509.27
2023-03-16T01:41:17.745Z,509.28
2023-03-16T01:41:28.750Z,509.27
2023-03-16T01:41:40.759Z,509.28
2023-03-16T01:41:52.736Z,509.32
2023-03-16T01:42:03.761Z,509.30
2023-03-16T01:42:15.775Z,509.31
2023-03-16T01:42:27.739Z,509.33
2023-03-16T01:42:38.752Z,509.31
2023-03-16T01:42:50.759Z,509.28
2023-03-16T01:43:02.777Z,509.30
2023-03-16T01:43:14.758Z,509.27
2023-03-16T01:43:26.754Z,509.26
2023-03-16T01:43:37.751Z,509.21
2023-03-16T01:43:49.738Z,509.20
2023-03-16T01:44:00.760Z,509.21
2023-03-16T01:44:12.762Z,509.18
2023-03-16T01:44:24.732Z,509.18
2023-03-16T01:44:35.747Z,509.17
2023-03-16T01:44:47.737Z,509.15
2023-03-16T01:44:58.734Z,509.13
2023-03-16T01:45:09.757Z,509.13
2023-03-16T01:45:21.744Z,509.15
2023-03-16T01:45:32.749Z,509.13
2023-03-16T01:45:44.764Z,509.16
2023-03-16T01:45:56.799Z,509.17
2023-03-16T01:46:08.843Z,509.20
2023-03-16T01:46:20.853Z,509.20
2023-03-16T01:46:32.769Z,509.24
2023-03-16T01:46:44.737Z,509.23
2023-03-16T01:46:55.737Z,509.24
2023-03-16T01:47:06.756Z,509.23
2023-03-16T01:47:17.766Z,509.28
2023-03-16T01:47:29.781Z,509.26
2023-03-16T01:47:41.753Z,509.30
2023-03-16T01:47:52.753Z,509.29
2023-03-16T01:48:03.757Z,509.29
2023-03-16T01:48:14.765Z,509.29
2023-03-16T01:48:25.759Z,509.33
2023-03-16T01:48:37.737Z,509.34
2023-03-16T01:48:48.752Z,509.33
2023-03-16T01:48:59.746Z,509.32
2023-03-16T01:49:11.722Z,509.32
2023-03-16T01:49:23.767Z,509.33
2023-03-16T01:49:35.715Z,509.33
2023-03-16T01:49:46.723Z,509.36
2023-03-16T01:49:57.769Z,509.38
2023-03-16T01:50:09.750Z,509.36
2023-03-16T01:50:20.761Z,509.36
2023-03-16T01:50:31.762Z,509.38
2023-03-16T01:50:43.732Z,509.41
2023-03-16T01:50:54.761Z,509.42
2023-03-16T01:51:06.746Z,509.45
2023-03-16T01:51:17.754Z,509.47
2023-03-16T01:51:29.733Z,509.47
2023-03-16T01:51:40.752Z,509.48
2023-03-16T01:51:51.772Z,509.54
2023-03-16T01:52:03.776Z,509.59
2023-03-16T01:52:15.752Z,509.66
2023-03-16T01:52:26.757Z,509.71
2023-03-16T01:52:38.747Z,509.73
2023-03-16T01:52:49.748Z,509.78
2023-03-16T01:53:01.750Z,509.82
2023-03-16T01:53:12.762Z,509.82
2023-03-16T01:53:24.756Z,509.88
2023-03-16T01:53:36.746Z,509.90
2023-03-16T01:53:47.782Z,509.96
2023-03-16T01:53:59.783Z,510.00
2023-03-16T01:54:11.768Z,510.03
2023-03-16T01:54:23.781Z,510.05
2023-03-16T01:54:35.753Z,510.08
2023-03-16T01:54:47.748Z,510.07
2023-03-16T01:54:58.751Z,510.09
2023-03-16T01:55:10.751Z,510.07
2023-03-16T01:55:21.745Z,510.07
2023-03-16T01:55:33.728Z,510.13
2023-03-16T01:55:44.756Z,510.15
2023-03-16T01:55:55.757Z,510.15
2023-03-16T01:56:07.762Z,510.15
2023-03-16T01:56:19.755Z,510.12
2023-03-16T01:56:30.723Z,510.11
2023-03-16T01:56:41.748Z,510.15
2023-03-16T01:56:53.739Z,510.12
2023-03-16T01:57:05.767Z,510.09
2023-03-16T01:57:17.761Z,510.08
2023-03-16T01:57:29.743Z,510.07
2023-03-16T01:57:41.763Z,510.06
2023-03-16T01:57:53.743Z,510.07
2023-03-16T01:58:05.742Z,510.04
2023-03-16T01:58:17.741Z,510.04
2023-03-16T01:58:28.745Z,510.03
2023-03-16T01:58:39.755Z,510.03
2023-03-16T01:58:51.761Z,510.00
2023-03-16T01:59:03.753Z,509.98
2023-03-16T01:59:15.743Z,509.99
2023-03-16T01:59:26.769Z,509.98
2023-03-16T01:59:38.751Z,509.94
2023-03-16T01:59:49.750Z,509.95
2023-03-16T02:00:01.733Z,509.96
2023-03-16T02:00:12.756Z,509.95
2023-03-16T02:00:24.750Z,509.97
2023-03-16T02:00:35.746Z,509.97
2023-03-16T02:00:46.740Z,510.00
2023-03-16T02:00:58.808Z,509.97
2023-03-16T02:01:09.787Z,510.00
2023-03-16T02:01:20.749Z,510.03
2023-03-16T02:01:32.758Z,510.05
2023-03-16T02:01:44.788Z,510.08
2023-03-16T02:01:56.774Z,510.08
2023-03-16T02:02:08.734Z,510.11
2023-03-16T02:02:19.806Z,510.19
2023-03-16T02:02:31.779Z,510.19
2023-03-16T02:02:43.790Z,510.23
2023-03-16T02:02:55.773Z,510.25
2023-03-16T02:03:07.734Z,510.31
2023-03-16T02:03:19.738Z,510.32
2023-03-16T02:03:30.746Z,510.36
2023-03-16T02:03:41.705Z,510.37
2023-03-16T02:03:52.745Z,510.38
2023-03-16T02:04:04.756Z,510.41
2023-03-16T02:04:16.816Z,510.44
2023-03-16T02:04:28.844Z,510.49
2023-03-16T02:04:39.895Z,510.50
2023-03-16T02:04:51.744Z,510.50
2023-03-16T02:05:02.761Z,510.54
2023-03-16T02:05:14.762Z,510.52
2023-03-16T02:05:25.763Z,510.54
2023-03-16T02:05:36.768Z,510.54
2023-03-16T02:05:48.794Z,510.55
2023-03-16T02:06:00.706Z,510.57
2023-03-16T02:06:11.735Z,510.57
2023-03-16T02:06:23.736Z,510.57
2023-03-16T02:06:34.760Z,510.63
2023-03-16T02:06:45.753Z,510.59
2023-03-16T02:06:57.740Z,510.59
2023-03-16T02:07:08.742Z,510.60
2023-03-16T02:07:20.735Z,510.58
2023-03-16T02:07:32.759Z,510.62
2023-03-16T02:07:44.755Z,510.65
2023-03-16T02:07:56.739Z,510.63
2023-03-16T02:08:08.738Z,510.65
2023-03-16T02:08:20.736Z,510.68
2023-03-16T02:08:31.717Z,510.65
2023-03-16T02:08:42.763Z,510.65
2023-03-16T02:08:54.731Z,510.66
2023-03-16T02:09:05.805Z,510.66
2023-03-16T02:09:17.896Z,510.66
2023-03-16T02:09:29.765Z,510.66
2023-03-16T02:09:41.782Z,510.67
2023-03-16T02:09:53.777Z,510.67
2023-03-16T02:10:05.741Z,510.66
2023-03-16T02:10:17.755Z,510.64
2023-03-16T02:10:30.342Z,510.66
2023-03-16T02:10:41.763Z,510.63
2023-03-16T02:10:52.734Z,510.66
2023-03-16T02:11:03.808Z,510.65
2023-03-16T02:11:15.790Z,510.64
2023-03-16T02:11:27.778Z,510.63
2023-03-16T02:11:39.741Z,510.63
2023-03-16T02:11:51.749Z,510.59
2023-03-16T02:12:04.596Z,510.63
2023-03-16T02:12:14.728Z,510.60
2023-03-16T02:12:26.723Z,510.60
2023-03-16T02:12:38.747Z,510.58
2023-03-16T02:12:50.738Z,510.61
2023-03-16T02:13:02.717Z,510.62
2023-03-16T02:13:13.721Z,510.61
2023-03-16T02:13:24.786Z,510.61
2023-03-16T02:13:36.869Z,510.61
2023-03-16T02:13:48.753Z,510.61
2023-03-16T02:13:59.749Z,510.62
2023-03-16T02:14:11.755Z,510.62
2023-03-16T02:14:22.798Z,510.61
2023-03-16T02:14:34.793Z,510.59
2023-03-16T02:14:46.761Z,510.63
2023-03-16T02:14:58.735Z,510.64
2023-03-16T02:15:10.746Z,510.61
2023-03-16T02:15:21.756Z,510.62
2023-03-16T02:15:32.887Z,510.64
2023-03-16T02:15:44.792Z,510.65
2023-03-16T02:15:56.833Z,510.68
2023-03-16T02:16:07.809Z,510.67
2023-03-16T02:16:18.800Z,510.69
2023-03-16T02:16:29.721Z,510.69
2023-03-16T02:16:40.787Z,510.66
2023-03-16T02:16:52.766Z,510.68
2023-03-16T02:17:04.743Z,510.71
2023-03-16T02:17:16.735Z,510.68
2023-03-16T02:17:28.781Z,510.70
2023-03-16T02:17:40.759Z,510.72
2023-03-16T02:17:51.766Z,510.70
2023-03-16T02:18:03.772Z,510.71
2023-03-16T02:18:15.739Z,510.70
2023-03-16T02:18:26.767Z,510.72
2023-03-16T02:18:37.775Z,510.72
2023-03-16T02:18:49.755Z,510.65
2023-03-16T02:19:01.759Z,510.66
2023-03-16T02:19:13.760Z,510.69
2023-03-16T02:19:25.786Z,510.67
2023-03-16T02:19:37.778Z,510.67
2023-03-16T02:19:49.788Z,510.67
2023-03-16T02:20:01.788Z,510.65
2023-03-16T02:20:13.791Z,510.67
2023-03-16T02:20:24.721Z,510.64
2023-03-16T02:20:35.785Z,510.65
2023-03-16T02:20:47.773Z,510.63
2023-03-16T02:20:59.756Z,510.68
2023-03-16T02:21:11.736Z,510.67
2023-03-16T02:21:22.731Z,510.66
2023-03-16T02:21:33.766Z,510.67
2023-03-16T02:21:45.741Z,510.66
2023-03-16T02:21:57.748Z,510.66
2023-03-16T02:22:08.754Z,510.68
2023-03-16T02:22:19.762Z,510.70
2023-03-16T02:22:30.758Z,510.69